Time,TemperatureF,DewpointF,PressureIn,WindDirection,WindDirectionDegrees,WindSpeedMPH,WindSpeedGustMPH,Humidity,HourlyPrecipIn,Conditions,Clouds,dailyrainin,SolarRadiationWatts/m^2,SoftwareType,DateUTC
2013-10-28 00:04:00,27.1,23.2,25.47,North,0,3.5,3.5,85,0.00,CLR,,0.00,0.0,WeatherDisplay:10.37,2013-10-28 06:04:00,
2013-10-28 00:09:00,27.0,23.1,25.47,NE,45,5.8,5.8,85,0.00,CLR,,0.00,0.0,WeatherDisplay:10.37,2013-10-28 06:09:00,
2013-10-28 00:14:00,26.8,22.6,25.47,East,90,10.7,10.7,84,0.00,CLR,,0.00,12122.5,WeatherDisplay:10.37,2013-10-28 06:14:00,
2013-10-28 00:19:00,26.6,22.4,25.47,North,0,8.1,8.1,84,0.00,CLR,,0.00,0.0,WeatherDisplay:10.37,2013-10-28 06:19:00,
2013-10-28 00:24:00,26.4,22.0,25.47,SW,225,8.1,8.1,83,0.00,CLR,,0.00,12122.5,WeatherDisplay:10.37,2013-10-28 06:24:00,
2013-10-28 00:29:00,26.2,21.8,25.47,NW,315,9.2,9.2,83,0.00,CLR,,0.00,0.0,WeatherDisplay:10.37,2013-10-28 06:29:00,
2013-10-28 00:34:00,26.1,21.6,25.48,North,0,10.4,10.4,83,0.00,CLR,,0.00,12122.5,WeatherDisplay:10.37,2013-10-28 06:34:00,
2013-10-28 00:39:00,25.9,21.1,25.48,NW,315,14.5,14.5,82,0.00,CLR,,0.00,12226.0,WeatherDisplay:10.37,2013-10-28 06:39:00,
2013-10-28 00:44:00,25.9,21.1,25.47,East,90,8.1,8.1,82,0.00,CLR,,0.00,0.0,WeatherDisplay:10.37,2013-10-28 06:44:00,
2013-10-28 00:49:00,25.7,21.3,25.48,North,0,4.6,4.6,83,0.00,CLR,,0.00,12226.0,WeatherDisplay:10.37,2013-10-28 06:49:00,
2013-10-28 00:54:00,25.7,21.3,25.48,North,0,8.1,8.1,83,0.00,CLR,,0.00,0.0,WeatherDisplay:10.37,2013-10-28 06:54:00,
2013-10-28 00:59:00,25.5,20.8,25.48,North,0,6.9,6.9,82,0.00,CLR,,0.00,12226.0,WeatherDisplay:10.37,2013-10-28 06:59:00,
2013-10-28 01:04:00,25.5,20.8,25.48,ESE,112,2.3,2.3,82,0.00,CLR,,0.00,12226.0,WeatherDisplay:10.37,2013-10-28 07:04:00,
2013-10-28 01:09:00,25.3,20.6,25.48,North,0,4.6,4.6,82,0.00,CLR,,0.00,0.0,WeatherDisplay:10.37,2013-10-28 07:09:00,
2013-10-28 01:14:00,25.2,20.4,25.48,North,0,12.7,12.7,82,0.00,CLR,,0.00,12329.6,WeatherDisplay:10.37,2013-10-28 07:14:00,
2013-10-28 01:19:00,25.0,20.5,25.48,NW,315,5.8,5.8,83,0.00,CLR,,0.00,0.0,WeatherDisplay:10.37,2013-10-28 07:19:00,
2013-10-28 01:24:00,24.8,20.4,25.48,NE,45,9.2,9.2,83,0.00,CLR,,0.00,12329.6,WeatherDisplay:10.37,2013-10-28 07:24:00,
2013-10-28 01:29:00,24.4,20.0,25.48,NW,315,5.8,5.8,83,0.00,CLR,,0.00,12329.6,WeatherDisplay:10.37,2013-10-28 07:29:00,
2013-10-28 01:34:00,24.3,19.8,25.49,SW,225,5.8,5.8,83,0.00,CLR,,0.00,0.0,WeatherDisplay:10.37,2013-10-28 07:34:00,
2013-10-28 01:39:00,24.1,19.9,25.49,North,0,5.8,5.8,84,0.00,CLR,,0.00,12433.1,WeatherDisplay:10.37,2013-10-28 07:39:00,
2013-10-28 01:44:00,23.9,20.0,25.49,North,0,5.8,5.8,85,0.00,CLR,,0.00,0.0,WeatherDisplay:10.37,2013-10-28 07:44:00,
2013-10-28 01:49:00,23.7,19.9,25.49,NW,315,5.8,5.8,85,0.00,CLR,,0.00,0.0,WeatherDisplay:10.37,2013-10-28 07:49:00,
2013-10-28 01:54:00,23.4,19.5,25.48,NE,45,9.2,9.2,85,0.00,CLR,,0.00,12433.1,WeatherDisplay:10.37,2013-10-28 07:54:00,
2013-10-28 01:59:00,23.4,19.5,25.49,West,270,5.8,0.0,85,0.00,CLR,,0.00,0.0,WeatherDisplay:10.37,2013-10-28 07:59:00,
2013-10-28 02:04:00,23.4,19.5,25.49,North,0,3.5,3.5,85,0.00,CLR,,0.00,12433.1,WeatherDisplay:10.37,2013-10-28 08:04:00,
2013-10-28 02:09:00,23.2,19.3,25.49,North,0,7.6,7.6,85,0.00,CLR,,0.00,12536.7,WeatherDisplay:10.37,2013-10-28 08:09:00,
2013-10-28 02:14:00,23.0,19.2,25.49,NW,315,8.1,8.1,85,0.00,CLR,,0.00,0.0,WeatherDisplay:10.37,2013-10-28 08:14:00,
2013-10-28 02:19:00,23.0,19.2,25.49,NE,45,3.5,3.5,85,0.00,CLR,,0.00,12536.7,WeatherDisplay:10.37,2013-10-28 08:19:00,
2013-10-28 02:24:00,23.0,19.2,25.49,NE,45,6.9,6.9,85,0.00,CLR,,0.00,0.0,WeatherDisplay:10.37,2013-10-28 08:24:00,
2013-10-28 02:29:00,22.8,19.0,25.49,NE,45,5.8,5.8,85,0.00,CLR,,0.00,12536.7,WeatherDisplay:10.37,2013-10-28 08:29:00,
2013-10-28 02:34:00,22.6,18.8,25.48,NE,45,4.5,4.5,85,0.00,CLR,,0.00,12536.7,WeatherDisplay:10.37,2013-10-28 08:34:00,
2013-10-28 02:39:00,22.6,18.8,25.49,North,0,3.5,3.5,85,0.00,CLR,,0.00,0.0,WeatherDisplay:10.37,2013-10-28 08:39:00,
2013-10-28 02:44:00,22.5,18.6,25.49,North,0,6.9,6.9,85,0.00,CLR,,0.00,12692.0,WeatherDisplay:10.37,2013-10-28 08:44:00,
2013-10-28 02:49:00,22.5,18.6,25.50,ENE,68,5.8,5.8,85,0.00,CLR,,0.00,0.0,WeatherDisplay:10.37,2013-10-28 08:49:00,
2013-10-28 02:54:00,22.5,18.6,25.49,NE,45,3.5,0.0,85,0.00,CLR,,0.00,12692.0,WeatherDisplay:10.37,2013-10-28 08:54:00,
2013-10-28 02:59:00,22.3,18.5,25.49,NW,315,10.4,10.4,85,0.00,CLR,,0.00,12692.0,WeatherDisplay:10.37,2013-10-28 08:59:00,
2013-10-28 03:04:00,22.3,18.5,25.49,North,0,4.6,4.6,85,0.00,CLR,,0.00,0.0,WeatherDisplay:10.37,2013-10-28 09:04:00,
2013-10-28 03:09:00,21.9,18.1,25.49,NE,45,3.5,3.5,85,0.00,CLR,,0.00,12795.5,WeatherDisplay:10.37,2013-10-28 09:09:00,
2013-10-28 03:14:00,21.7,18.2,25.49,NE,45,8.1,8.1,86,0.00,CLR,,0.00,12795.5,WeatherDisplay:10.37,2013-10-28 09:14:00,
2013-10-28 03:19:00,21.6,18.0,25.48,North,0,6.9,6.9,86,0.00,CLR,,0.00,12795.5,WeatherDisplay:10.37,2013-10-28 09:19:00,
2013-10-28 03:24:00,21.4,17.8,25.48,North,0,9.2,9.2,86,0.00,CLR,,0.00,12795.5,WeatherDisplay:10.37,2013-10-28 09:24:00,
2013-10-28 03:29:00,21.4,18.1,25.48,NW,315,9.2,9.2,87,0.00,CLR,,0.00,0.0,WeatherDisplay:10.37,2013-10-28 09:29:00,
2013-10-28 03:34:00,21.4,18.1,25.48,North,0,10.4,10.4,87,0.00,CLR,,0.00,12795.5,WeatherDisplay:10.37,2013-10-28 09:34:00,
2013-10-28 03:39:00,21.2,17.9,25.48,East,90,6.9,6.9,87,0.00,CLR,,0.00,12795.3,WeatherDisplay:10.37,2013-10-28 09:39:00,
2013-10-28 03:44:00,21.2,17.9,25.49,North,0,4.6,4.6,87,0.00,CLR,,0.00,12795.3,WeatherDisplay:10.37,2013-10-28 09:44:00,
2013-10-28 03:49:00,21.0,17.8,25.49,NE,45,5.8,5.8,87,0.00,CLR,,0.00,12795.3,WeatherDisplay:10.37,2013-10-28 09:49:00,
2013-10-28 03:54:00,21.0,17.8,25.48,South,180,2.3,0.0,87,0.00,CLR,,0.00,0.0,WeatherDisplay:10.37,2013-10-28 09:54:00,
2013-10-28 03:59:00,21.0,17.8,25.48,NE,45,5.8,5.8,87,0.00,CLR,,0.00,12795.3,WeatherDisplay:10.37,2013-10-28 09:59:00,
2013-10-28 04:04:00,21.0,17.8,25.48,NE,45,2.3,2.3,87,0.00,CLR,,0.00,12795.3,WeatherDisplay:10.37,2013-10-28 10:04:00,
2013-10-28 04:09:00,21.0,17.8,25.48,North,0,4.6,4.6,87,0.00,CLR,,0.00,0.0,WeatherDisplay:10.37,2013-10-28 10:09:00,
2013-10-28 04:14:00,20.8,17.6,25.48,North,0,3.5,3.5,87,0.00,CLR,,0.00,13001.2,WeatherDisplay:10.37,2013-10-28 10:14:00,
2013-10-28 04:19:00,20.8,17.3,25.48,NE,45,6.9,6.9,86,0.00,CLR,,0.00,0.0,WeatherDisplay:10.37,2013-10-28 10:19:00,
2013-10-28 04:24:00,20.8,17.3,25.48,NE,45,8.1,8.1,86,0.00,CLR,,0.00,13001.2,WeatherDisplay:10.37,2013-10-28 10:24:00,
2013-10-28 04:29:00,20.7,17.1,25.48,North,0,6.9,6.9,86,0.00,CLR,,0.00,13001.2,WeatherDisplay:10.37,2013-10-28 10:29:00,
2013-10-28 04:34:00,20.7,16.9,25.48,North,0,6.9,6.9,85,0.00,CLR,,0.00,0.0,WeatherDisplay:10.37,2013-10-28 10:34:00,
2013-10-28 04:39:00,20.7,17.1,25.48,North,0,5.8,5.8,86,0.00,CLR,,0.00,13208.1,WeatherDisplay:10.37,2013-10-28 10:39:00,
2013-10-28 04:44:00,20.5,17.0,25.48,North,0,6.9,6.9,86,0.00,CLR,,0.00,0.0,WeatherDisplay:10.37,2013-10-28 10:44:00,
2013-10-28 04:49:00,20.5,16.7,25.49,NW,315,8.1,8.1,85,0.00,CLR,,0.00,13208.1,WeatherDisplay:10.37,2013-10-28 10:49:00,
2013-10-28 04:54:00,20.5,16.7,25.49,NW,315,5.8,5.8,85,0.00,CLR,,0.00,13208.1,WeatherDisplay:10.37,2013-10-28 10:54:00,
2013-10-28 04:59:00,20.5,16.7,25.49,North,0,5.8,5.8,85,0.00,CLR,,0.00,0.0,WeatherDisplay:10.37,2013-10-28 10:59:00,
2013-10-28 05:04:00,20.5,16.7,25.49,NNW,338,3.5,3.5,85,0.00,CLR,,0.00,13208.1,WeatherDisplay:10.37,2013-10-28 11:04:00,
2013-10-28 05:09:00,20.3,16.5,25.49,North,0,11.5,11.5,85,0.00,CLR,,0.00,57.1,WeatherDisplay:10.37,2013-10-28 11:09:00,
2013-10-28 05:14:00,20.3,16.5,25.48,NE,45,4.6,4.6,85,0.00,CLR,,0.00,57.1,WeatherDisplay:10.37,2013-10-28 11:14:00,
2013-10-28 05:19:00,20.1,16.3,25.48,North,0,8.1,8.1,85,0.00,CLR,,0.00,57.1,WeatherDisplay:10.37,2013-10-28 11:19:00,
2013-10-28 05:24:00,20.1,16.3,25.49,North,0,3.5,3.5,85,0.00,CLR,,0.00,0.0,WeatherDisplay:10.37,2013-10-28 11:24:00,
2013-10-28 05:29:00,20.1,16.6,25.48,North,0,3.5,3.5,86,0.00,CLR,,0.00,57.1,WeatherDisplay:10.37,2013-10-28 11:29:00,
2013-10-28 05:34:00,20.1,16.6,25.49,North,0,6.0,6.0,86,0.00,CLR,,0.00,57.1,WeatherDisplay:10.37,2013-10-28 11:34:00,
2013-10-28 05:39:00,19.9,16.4,25.48,North,0,5.8,5.8,86,0.00,CLR,,0.00,56.7,WeatherDisplay:10.37,2013-10-28 11:39:00,
2013-10-28 05:44:00,19.9,16.4,25.48,NE,45,5.8,5.8,86,0.00,CLR,,0.00,56.7,WeatherDisplay:10.37,2013-10-28 11:44:00,
2013-10-28 05:49:00,19.9,16.4,25.48,WNW,292,5.8,5.8,86,0.00,CLR,,0.00,0.0,WeatherDisplay:10.37,2013-10-28 11:49:00,
2013-10-28 05:54:00,19.8,16.3,25.48,North,0,8.1,8.1,86,0.00,CLR,,0.00,56.7,WeatherDisplay:10.37,2013-10-28 11:54:00,
2013-10-28 05:59:00,19.8,16.3,25.48,North,0,8.1,8.1,86,0.00,CLR,,0.00,56.7,WeatherDisplay:10.37,2013-10-28 11:59:00,
2013-10-28 06:04:00,19.8,16.3,25.48,NE,45,5.8,5.8,86,0.00,CLR,,0.00,56.7,WeatherDisplay:10.37,2013-10-28 12:04:00,
2013-10-28 06:09:00,19.8,16.5,25.48,NE,45,4.6,4.6,87,0.00,CLR,,0.00,13155.3,WeatherDisplay:10.37,2013-10-28 12:09:00,
2013-10-28 06:14:00,19.8,16.3,25.48,NNE,22,8.1,8.1,86,0.00,CLR,,0.00,13155.3,WeatherDisplay:10.37,2013-10-28 12:14:00,
2013-10-28 06:19:00,19.6,16.3,25.48,NE,45,6.9,6.9,87,0.00,CLR,,0.00,13155.3,WeatherDisplay:10.37,2013-10-28 12:19:00,
2013-10-28 06:24:00,19.6,16.3,25.48,NNE,22,6.9,6.9,87,0.00,CLR,,0.00,13155.3,WeatherDisplay:10.37,2013-10-28 12:24:00,
2013-10-28 06:29:00,19.6,16.3,25.48,NW,315,3.5,3.5,87,0.00,CLR,,0.00,0.0,WeatherDisplay:10.37,2013-10-28 12:29:00,
2013-10-28 06:34:00,19.6,16.3,25.48,North,0,5.8,5.8,87,0.00,CLR,,0.00,13155.3,WeatherDisplay:10.37,2013-10-28 12:34:00,
2013-10-28 06:39:00,19.4,16.2,25.48,North,0,5.8,5.8,87,0.00,CLR,,0.00,12948.2,WeatherDisplay:10.37,2013-10-28 12:39:00,
2013-10-28 06:44:00,19.4,15.9,25.48,NE,45,8.1,8.1,86,0.00,CLR,,0.00,12948.2,WeatherDisplay:10.37,2013-10-28 12:44:00,
2013-10-28 06:49:00,19.6,16.3,25.48,NW,315,5.8,5.8,87,0.00,CLR,,0.00,12948.2,WeatherDisplay:10.37,2013-10-28 12:49:00,
2013-10-28 06:54:00,19.6,16.1,25.48,North,0,8.1,8.1,86,0.00,CLR,,0.00,0.0,WeatherDisplay:10.37,2013-10-28 12:54:00,
2013-10-28 06:59:00,19.4,15.9,25.48,NE,45,3.5,3.5,86,0.00,CLR,,0.00,12948.2,WeatherDisplay:10.37,2013-10-28 12:59:00,
2013-10-28 07:04:00,19.4,15.9,25.48,North,0,3.5,3.5,86,0.00,CLR,,0.00,12948.2,WeatherDisplay:10.37,2013-10-28 13:04:00,
2013-10-28 07:09:00,19.4,15.9,25.48,North,0,3.5,3.5,86,0.00,CLR,,0.00,12741.1,WeatherDisplay:10.37,2013-10-28 13:09:00,
2013-10-28 07:14:00,19.2,15.7,25.47,NNW,338,4.6,4.6,86,0.00,CLR,,0.00,12741.1,WeatherDisplay:10.37,2013-10-28 13:14:00,
2013-10-28 07:19:00,19.2,15.7,25.47,NE,45,5.8,5.8,86,0.00,CLR,,0.00,12741.1,WeatherDisplay:10.37,2013-10-28 13:19:00,
2013-10-28 07:24:00,19.0,15.8,25.47,NW,315,5.8,5.8,87,0.00,CLR,,0.00,12741.1,WeatherDisplay:10.37,2013-10-28 13:24:00,
2013-10-28 07:29:00,19.0,15.8,25.48,East,90,8.1,8.1,87,0.00,CLR,,0.00,12741.1,WeatherDisplay:10.37,2013-10-28 13:29:00,
2013-10-28 07:34:00,19.0,15.8,25.47,North,0,5.8,5.8,87,0.00,CLR,,0.00,12741.1,WeatherDisplay:10.37,2013-10-28 13:34:00,
2013-10-28 07:39:00,18.9,15.6,25.47,North,0,4.6,4.6,87,0.00,CLR,,0.00,12534.3,WeatherDisplay:10.37,2013-10-28 13:39:00,
2013-10-28 07:44:00,18.9,15.6,25.48,NE,45,4.6,4.6,87,0.00,CLR,,0.00,0.0,WeatherDisplay:10.37,2013-10-28 13:44:00,
2013-10-28 07:49:00,18.9,15.6,25.48,North,0,4.6,4.6,87,0.00,CLR,,0.00,12534.3,WeatherDisplay:10.37,2013-10-28 13:49:00,
2013-10-28 07:54:00,18.9,15.6,25.47,North,0,5.8,5.8,87,0.00,CLR,,0.00,12534.3,WeatherDisplay:10.37,2013-10-28 13:54:00,
2013-10-28 07:59:00,18.9,15.6,25.48,NNW,338,6.9,6.9,87,0.00,CLR,,0.00,12534.3,WeatherDisplay:10.37,2013-10-28 13:59:00,
2013-10-28 08:04:00,18.9,15.6,25.47,North,0,4.6,4.6,87,0.00,CLR,,0.00,12534.3,WeatherDisplay:10.37,2013-10-28 14:04:00,
2013-10-28 08:09:00,18.9,15.6,25.47,NE,45,5.8,5.8,87,0.00,CLR,,0.00,12223.8,WeatherDisplay:10.37,2013-10-28 14:09:00,
2013-10-28 08:14:00,18.7,15.5,25.48,SSE,158,4.6,4.6,87,0.00,CLR,,0.00,12223.8,WeatherDisplay:10.37,2013-10-28 14:14:00,
2013-10-28 08:19:00,18.7,15.5,25.47,East,90,3.5,3.5,87,0.00,CLR,,0.00,12223.8,WeatherDisplay:10.37,2013-10-28 14:19:00,
2013-10-28 08:24:00,18.7,15.5,25.48,North,0,5.8,5.8,87,0.00,CLR,,0.00,12223.8,WeatherDisplay:10.37,2013-10-28 14:24:00,
2013-10-28 08:29:00,18.7,15.5,25.48,North,0,6.9,6.9,87,0.00,CLR,,0.00,12223.8,WeatherDisplay:10.37,2013-10-28 14:29:00,
2013-10-28 08:34:00,18.7,15.5,25.48,North,0,2.3,2.3,87,0.00,CLR,,0.00,12223.8,WeatherDisplay:10.37,2013-10-28 14:34:00,
2013-10-28 08:39:00,18.7,15.7,25.49,North,0,3.5,3.5,88,0.00,CLR,,0.00,11861.6,WeatherDisplay:10.37,2013-10-28 14:39:00,
2013-10-28 08:44:00,18.7,15.7,25.49,NW,315,3.5,3.5,88,0.00,CLR,,0.00,11861.6,WeatherDisplay:10.37,2013-10-28 14:44:00,
2013-10-28 08:49:00,18.7,15.7,25.48,NNW,338,3.5,3.5,88,0.00,CLR,,0.00,11861.6,WeatherDisplay:10.37,2013-10-28 14:49:00,
2013-10-28 08:54:00,18.7,15.5,25.48,NW,315,4.6,4.6,87,0.00,CLR,,0.00,11861.6,WeatherDisplay:10.37,2013-10-28 14:54:00,
2013-10-28 08:59:00,18.7,15.7,25.48,North,0,3.1,3.1,88,0.00,CLR,,0.00,11861.6,WeatherDisplay:10.37,2013-10-28 14:59:00,
2013-10-28 09:04:00,18.7,15.7,25.48,North,0,3.5,3.5,88,0.00,CLR,,0.00,11861.6,WeatherDisplay:10.37,2013-10-28 15:04:00,
2013-10-28 09:09:00,18.7,15.7,25.48,NNE,22,3.5,3.5,88,0.00,CLR,,0.00,11551.2,WeatherDisplay:10.37,2013-10-28 15:09:00,
2013-10-28 09:14:00,18.7,15.7,25.49,NE,45,5.8,5.8,88,0.00,CLR,,0.00,11551.2,WeatherDisplay:10.37,2013-10-28 15:14:00,
2013-10-28 09:19:00,18.7,15.7,25.49,North,0,2.3,2.3,88,0.00,CLR,,0.00,11551.2,WeatherDisplay:10.37,2013-10-28 15:19:00,
2013-10-28 09:24:00,18.7,15.7,25.49,West,270,8.1,8.1,88,0.00,CLR,,0.00,11551.2,WeatherDisplay:10.37,2013-10-28 15:24:00,
2013-10-28 09:29:00,18.7,15.7,25.49,West,270,2.3,0.0,88,0.00,CLR,,0.00,11551.2,WeatherDisplay:10.37,2013-10-28 15:29:00,
2013-10-28 09:34:00,18.7,15.7,25.49,North,0,4.6,4.6,88,0.00,CLR,,0.00,11551.2,WeatherDisplay:10.37,2013-10-28 15:34:00,
2013-10-28 09:39:00,18.5,15.5,25.49,East,90,3.5,3.5,88,0.00,CLR,,0.00,11240.9,WeatherDisplay:10.37,2013-10-28 15:39:00,
2013-10-28 09:44:00,18.7,15.7,25.49,NW,315,6.9,6.9,88,0.00,CLR,,0.00,11240.9,WeatherDisplay:10.37,2013-10-28 15:44:00,
2013-10-28 09:49:00,18.5,15.3,25.49,NNW,338,8.1,8.1,87,0.00,CLR,,0.00,11240.9,WeatherDisplay:10.37,2013-10-28 15:49:00,
2013-10-28 09:54:00,18.5,15.5,25.49,NW,315,3.5,3.5,88,0.00,CLR,,0.00,11240.9,WeatherDisplay:10.37,2013-10-28 15:54:00,
2013-10-28 09:59:00,18.5,15.5,25.49,North,0,6.9,6.9,88,0.00,CLR,,0.00,11240.9,WeatherDisplay:10.37,2013-10-28 15:59:00,
2013-10-28 10:04:00,18.5,15.5,25.49,NW,315,4.6,4.6,88,0.00,OVC,,0.00,11240.9,WeatherDisplay:10.37,2013-10-28 16:04:00,
2013-10-28 10:09:00,18.5,15.5,25.50,NW,315,4.6,4.6,88,0.00,OVC,,0.00,11034.2,WeatherDisplay:10.37,2013-10-28 16:09:00,
2013-10-28 10:14:00,18.5,15.5,25.50,NW,315,5.8,5.8,88,0.00,OVC,,0.00,11034.2,WeatherDisplay:10.37,2013-10-28 16:14:00,
2013-10-28 10:19:00,18.5,15.5,25.49,North,0,5.8,5.8,88,0.00,OVC,,0.00,11034.2,WeatherDisplay:10.37,2013-10-28 16:19:00,
2013-10-28 10:24:00,18.3,15.1,25.49,NNW,338,3.5,3.5,87,0.00,OVC,,0.00,11034.2,WeatherDisplay:10.37,2013-10-28 16:24:00,
2013-10-28 10:29:00,18.5,15.5,25.49,NW,315,5.8,5.8,88,0.00,OVC,,0.00,11034.2,WeatherDisplay:10.37,2013-10-28 16:29:00,
2013-10-28 10:34:00,18.5,15.5,25.49,NW,315,6.9,6.9,88,0.00,OVC,,0.00,11034.2,WeatherDisplay:10.37,2013-10-28 16:34:00,
2013-10-28 10:39:00,18.7,15.5,25.49,North,0,5.8,5.8,87,0.00,OVC,,0.00,10879.5,WeatherDisplay:10.37,2013-10-28 16:39:00,
2013-10-28 10:44:00,18.7,15.5,25.49,NE,45,8.1,8.1,87,0.00,OVC,,0.00,10879.5,WeatherDisplay:10.37,2013-10-28 16:44:00,
2013-10-28 10:49:00,18.5,15.3,25.49,NE,45,4.6,4.6,87,0.00,OVC,,0.00,10879.5,WeatherDisplay:10.37,2013-10-28 16:49:00,
2013-10-28 10:54:00,18.5,15.3,25.49,North,0,5.8,5.8,87,0.00,OVC,,0.00,10879.5,WeatherDisplay:10.37,2013-10-28 16:54:00,
2013-10-28 10:59:00,18.5,15.3,25.48,NE,45,8.1,8.1,87,0.00,OVC,,0.00,10879.5,WeatherDisplay:10.37,2013-10-28 16:59:00,
2013-10-28 11:04:00,18.5,15.3,25.48,North,0,5.8,5.8,87,0.00,OVC,,0.00,10879.5,WeatherDisplay:10.37,2013-10-28 17:04:00,
2013-10-28 11:09:00,18.7,15.5,25.49,WNW,292,9.2,9.2,87,0.00,OVC,,0.00,10776.2,WeatherDisplay:10.37,2013-10-28 17:09:00,
2013-10-28 11:14:00,18.9,15.4,25.49,NE,45,6.9,6.9,86,0.00,OVC,,0.00,10776.2,WeatherDisplay:10.37,2013-10-28 17:14:00,
2013-10-28 11:19:00,18.9,15.4,25.48,NNW,338,10.4,10.4,86,0.00,OVC,,0.00,10776.2,WeatherDisplay:10.37,2013-10-28 17:19:00,
2013-10-28 11:24:00,19.2,15.7,25.49,SW,225,8.1,8.1,86,0.00,OVC,,0.00,10776.2,WeatherDisplay:10.37,2013-10-28 17:24:00,
2013-10-28 11:29:00,19.4,15.9,25.48,North,0,10.4,10.4,86,0.00,OVC,,0.00,10776.2,WeatherDisplay:10.37,2013-10-28 17:29:00,
2013-10-28 11:34:00,19.2,15.5,25.48,NE,45,8.1,8.1,85,0.00,OVC,,0.00,10776.2,WeatherDisplay:10.37,2013-10-28 17:34:00,
2013-10-28 11:39:00,19.2,15.5,25.48,North,0,8.1,8.1,85,0.00,OVC,,0.00,10621.3,WeatherDisplay:10.37,2013-10-28 17:39:00,
2013-10-28 11:44:00,19.4,15.9,25.48,North,0,5.8,5.8,86,0.00,OVC,,0.00,10621.3,WeatherDisplay:10.37,2013-10-28 17:44:00,
2013-10-28 11:49:00,19.4,15.6,25.48,North,0,5.8,5.8,85,0.00,OVC,,0.00,10621.3,WeatherDisplay:10.37,2013-10-28 17:49:00,
2013-10-28 11:54:00,19.4,15.6,25.48,NW,315,5.8,6.0,85,0.00,OVC,,0.00,10621.3,WeatherDisplay:10.37,2013-10-28 17:54:00,
2013-10-28 11:59:00,19.2,15.7,25.48,NW,315,8.1,8.1,86,0.00,OVC,,0.00,10621.3,WeatherDisplay:10.37,2013-10-28 17:59:00,
2013-10-28 12:04:00,19.2,15.7,25.49,NW,315,6.9,6.9,86,0.00,OVC,,0.00,10621.3,WeatherDisplay:10.37,2013-10-28 18:04:00,
2013-10-28 12:09:00,19.2,15.5,25.48,NNW,338,6.9,6.9,85,0.00,OVC,,0.00,10518.1,WeatherDisplay:10.37,2013-10-28 18:09:00,
2013-10-28 12:14:00,19.2,15.7,25.48,NE,45,5.8,5.8,86,0.00,OVC,,0.00,10518.1,WeatherDisplay:10.37,2013-10-28 18:14:00,
2013-10-28 12:19:00,19.4,15.6,25.48,North,0,8.1,8.1,85,0.00,OVC,,0.00,10518.1,WeatherDisplay:10.37,2013-10-28 18:19:00,
2013-10-28 12:24:00,19.2,15.5,25.48,North,0,6.9,6.9,85,0.00,OVC,,0.00,10518.1,WeatherDisplay:10.37,2013-10-28 18:24:00,
2013-10-28 12:29:00,19.4,15.6,25.48,NW,315,8.1,8.1,85,0.00,OVC,,0.00,10518.1,WeatherDisplay:10.37,2013-10-28 18:29:00,
2013-10-28 12:34:00,19.6,15.8,25.48,NW,315,5.8,5.8,85,0.00,OVC,,0.00,10518.1,WeatherDisplay:10.37,2013-10-28 18:34:00,
2013-10-28 12:39:00,19.8,15.7,25.47,West,270,12.7,12.7,84,0.00,OVC,,0.00,10363.0,WeatherDisplay:10.37,2013-10-28 18:39:00,
2013-10-28 12:44:00,19.8,16.0,25.47,North,0,5.8,5.8,85,0.00,OVC,,0.00,10363.0,WeatherDisplay:10.37,2013-10-28 18:44:00,
2013-10-28 12:49:00,19.9,15.9,25.47,NW,315,10.4,10.4,84,0.00,OVC,,0.00,10363.0,WeatherDisplay:10.37,2013-10-28 18:49:00,
2013-10-28 12:54:00,19.8,15.7,25.47,NW,315,9.2,9.2,84,0.00,OVC,,0.00,10363.0,WeatherDisplay:10.37,2013-10-28 18:54:00,
2013-10-28 12:59:00,19.9,15.9,25.47,WNW,292,4.6,4.6,84,0.00,OVC,,0.00,10363.0,WeatherDisplay:10.37,2013-10-28 18:59:00,
2013-10-28 13:04:00,19.9,15.9,25.47,NW,315,8.1,8.1,84,0.00,OVC,,0.00,10363.0,WeatherDisplay:10.37,2013-10-28 19:04:00,
2013-10-28 13:09:00,19.8,15.4,25.46,NE,45,15.0,15.0,83,0.00,OVC,,0.00,10156.1,WeatherDisplay:10.37,2013-10-28 19:09:00,
2013-10-28 13:14:00,19.8,15.7,25.46,NNW,338,5.8,5.8,84,0.00,OVC,,0.00,10156.1,WeatherDisplay:10.37,2013-10-28 19:14:00,
2013-10-28 13:19:00,20.3,16.2,25.46,NW,315,6.9,6.9,84,0.00,OVC,,0.00,10156.1,WeatherDisplay:10.37,2013-10-28 19:19:00,
2013-10-28 13:24:00,20.1,15.8,25.47,North,0,9.2,9.2,83,0.00,OVC,,0.00,10156.1,WeatherDisplay:10.37,2013-10-28 19:24:00,
2013-10-28 13:29:00,19.8,15.4,25.46,North,0,10.4,10.4,83,0.00,OVC,,0.00,10156.1,WeatherDisplay:10.37,2013-10-28 19:29:00,
2013-10-28 13:34:00,19.8,15.4,25.45,NW,315,8.1,8.1,83,0.00,OVC,,0.00,10156.1,WeatherDisplay:10.37,2013-10-28 19:34:00,
2013-10-28 13:39:00,19.8,15.4,25.45,NNE,22,4.6,4.6,83,0.00,OVC,,0.00,10001.0,WeatherDisplay:10.37,2013-10-28 19:39:00,
2013-10-28 13:44:00,20.1,15.8,25.45,NE,45,10.7,10.7,83,0.00,OVC,,0.00,10001.0,WeatherDisplay:10.37,2013-10-28 19:44:00,
2013-10-28 13:49:00,19.8,15.2,25.45,North,0,10.4,10.4,82,0.00,OVC,,0.00,10001.0,WeatherDisplay:10.37,2013-10-28 19:49:00,
2013-10-28 13:54:00,20.1,15.8,25.45,North,0,4.6,4.6,83,0.00,OVC,,0.00,10001.0,WeatherDisplay:10.37,2013-10-28 19:54:00,
2013-10-28 13:59:00,20.1,15.5,25.44,North,0,3.5,4.5,82,0.00,OVC,,0.00,10001.0,WeatherDisplay:10.37,2013-10-28 19:59:00,
2013-10-28 14:04:00,20.1,15.5,25.44,SE,135,9.2,9.2,82,0.00,OVC,,0.00,10001.0,WeatherDisplay:10.37,2013-10-28 20:04:00,
2013-10-28 14:09:00,20.5,15.9,25.44,North,0,9.2,9.2,82,0.00,OVC,,0.00,9845.9,WeatherDisplay:10.37,2013-10-28 20:09:00,
2013-10-28 14:14:00,20.3,15.4,25.43,NNW,338,10.4,10.4,81,0.00,OVC,,0.00,9845.9,WeatherDisplay:10.37,2013-10-28 20:14:00,
2013-10-28 14:19:00,20.3,15.4,25.44,NW,315,5.8,5.8,81,0.00,OVC,,0.00,9845.9,WeatherDisplay:10.37,2013-10-28 20:19:00,
2013-10-28 14:24:00,20.1,15.2,25.44,North,0,10.4,10.4,81,0.00,OVC,,0.00,9845.9,WeatherDisplay:10.37,2013-10-28 20:24:00,
2013-10-28 14:29:00,19.9,15.0,25.43,East,90,10.4,10.4,81,0.00,OVC,,0.00,9845.9,WeatherDisplay:10.37,2013-10-28 20:29:00,
2013-10-28 14:34:00,19.9,15.0,25.43,North,0,4.6,4.6,81,0.00,OVC,,0.00,9845.9,WeatherDisplay:10.37,2013-10-28 20:34:00,
2013-10-28 14:39:00,20.1,15.2,25.43,NE,45,3.5,3.5,81,0.00,OVC,,0.00,9742.5,WeatherDisplay:10.37,2013-10-28 20:39:00,
2013-10-28 14:44:00,20.1,15.2,25.43,North,0,5.8,5.8,81,0.00,OVC,,0.00,9742.5,WeatherDisplay:10.37,2013-10-28 20:44:00,
2013-10-28 14:49:00,19.9,15.0,25.43,NE,45,6.9,6.9,81,0.00,OVC,,0.00,9742.5,WeatherDisplay:10.37,2013-10-28 20:49:00,
2013-10-28 14:54:00,19.8,14.9,25.43,NE,45,2.3,2.3,81,0.00,OVC,,0.00,9742.5,WeatherDisplay:10.37,2013-10-28 20:54:00,
2013-10-28 14:59:00,19.8,14.6,25.43,NE,45,5.8,5.8,80,0.00,OVC,,0.00,9742.5,WeatherDisplay:10.37,2013-10-28 20:59:00,
2013-10-28 15:04:00,19.6,14.4,25.42,North,0,8.1,8.1,80,0.00,OVC,,0.00,9742.5,WeatherDisplay:10.37,2013-10-28 21:04:00,
2013-10-28 15:09:00,19.4,14.2,25.42,NE,45,6.9,6.9,80,0.00,CLR,,0.00,9587.2,WeatherDisplay:10.37,2013-10-28 21:09:00,
2013-10-28 15:14:00,19.2,14.1,25.42,North,0,5.8,5.8,80,0.00,CLR,,0.00,9587.2,WeatherDisplay:10.37,2013-10-28 21:14:00,
2013-10-28 15:19:00,19.2,14.1,25.42,North,0,4.6,4.6,80,0.00,CLR,,0.00,9587.2,WeatherDisplay:10.37,2013-10-28 21:19:00,
2013-10-28 15:24:00,19.0,13.9,25.43,North,0,9.2,9.2,80,0.00,CLR,,0.00,9587.2,WeatherDisplay:10.37,2013-10-28 21:24:00,
2013-10-28 15:29:00,19.2,14.1,25.42,North,0,3.5,3.5,80,0.00,CLR,,0.00,9587.2,WeatherDisplay:10.37,2013-10-28 21:29:00,
2013-10-28 15:34:00,19.0,13.6,25.42,North,0,5.8,5.8,79,0.00,CLR,,0.00,9587.2,WeatherDisplay:10.37,2013-10-28 21:34:00,
2013-10-28 15:39:00,18.9,13.4,25.42,NE,45,6.9,6.9,79,0.00,CLR,,0.00,9483.9,WeatherDisplay:10.37,2013-10-28 21:39:00,
2013-10-28 15:44:00,18.9,13.4,25.42,NW,315,5.8,5.8,79,0.00,CLR,,0.00,9483.9,WeatherDisplay:10.37,2013-10-28 21:44:00,
2013-10-28 15:49:00,18.9,13.4,25.42,North,0,8.1,8.1,79,0.00,CLR,,0.00,9483.9,WeatherDisplay:10.37,2013-10-28 21:49:00,
2013-10-28 15:54:00,18.9,13.4,25.42,NW,315,4.6,4.6,79,0.00,CLR,,0.00,9483.9,WeatherDisplay:10.37,2013-10-28 21:54:00,
2013-10-28 15:59:00,18.9,13.4,25.42,North,0,6.9,6.9,79,0.00,CLR,,0.00,9483.9,WeatherDisplay:10.37,2013-10-28 21:59:00,
2013-10-28 16:04:00,18.9,13.4,25.42,East,90,3.5,3.5,79,0.00,CLR,,0.00,9483.9,WeatherDisplay:10.37,2013-10-28 22:04:00,
2013-10-28 16:09:00,18.9,13.4,25.42,NW,315,5.8,5.8,79,0.00,CLR,,0.00,9432.5,WeatherDisplay:10.37,2013-10-28 22:09:00,
2013-10-28 16:14:00,18.7,13.2,25.42,North,0,4.6,4.6,79,0.00,CLR,,0.00,9432.5,WeatherDisplay:10.37,2013-10-28 22:14:00,
2013-10-28 16:19:00,18.7,13.0,25.42,North,0,4.6,4.6,78,0.00,CLR,,0.00,9432.5,WeatherDisplay:10.37,2013-10-28 22:19:00,
2013-10-28 16:24:00,18.7,13.0,25.42,NW,315,4.6,4.6,78,0.00,CLR,,0.00,9432.5,WeatherDisplay:10.37,2013-10-28 22:24:00,
2013-10-28 16:29:00,18.9,13.4,25.42,WNW,292,1.2,0.0,79,0.00,CLR,,0.00,9432.5,WeatherDisplay:10.37,2013-10-28 22:29:00,
2013-10-28 16:34:00,19.0,13.3,25.42,North,0,3.5,3.5,78,0.00,CLR,,0.00,202.0,WeatherDisplay:10.37,2013-10-28 22:34:00,
2013-10-28 16:39:00,19.0,13.3,25.43,NW,315,5.8,5.8,78,0.00,CLR,,0.00,9432.9,WeatherDisplay:10.37,2013-10-28 22:39:00,
2013-10-28 16:44:00,19.0,13.3,25.43,SSE,158,1.2,0.0,78,0.00,CLR,,0.00,9432.9,WeatherDisplay:10.37,2013-10-28 22:44:00,
2013-10-28 16:49:00,18.9,13.1,25.42,NE,45,3.5,3.5,78,0.00,CLR,,0.00,9432.9,WeatherDisplay:10.37,2013-10-28 22:49:00,
2013-10-28 16:54:00,18.9,13.1,25.42,East,90,2.3,2.3,78,0.00,CLR,,0.00,9432.9,WeatherDisplay:10.37,2013-10-28 22:54:00,
2013-10-28 16:59:00,18.9,13.1,25.42,North,0,2.2,2.2,78,0.00,CLR,,0.00,9432.9,WeatherDisplay:10.37,2013-10-28 22:59:00,
2013-10-28 17:04:00,18.9,13.1,25.42,North,0,2.3,2.3,78,0.00,CLR,,0.00,273.0,WeatherDisplay:10.37,2013-10-28 23:04:00,
2013-10-28 17:09:00,18.9,13.1,25.42,North,0,2.3,2.3,78,0.00,CLR,,0.00,9536.7,WeatherDisplay:10.37,2013-10-28 23:09:00,
2013-10-28 17:14:00,18.9,13.1,25.42,NE,45,5.4,5.4,78,0.00,CLR,,0.00,9536.7,WeatherDisplay:10.37,2013-10-28 23:14:00,
2013-10-28 17:19:00,18.9,13.1,25.43,NE,45,3.5,3.5,78,0.00,CLR,,0.00,307.0,WeatherDisplay:10.37,2013-10-28 23:19:00,
2013-10-28 17:25:00,18.7,13.0,25.42,NE,45,3.5,3.5,78,0.00,CLR,,0.00,318.0,WeatherDisplay:10.37,2013-10-28 23:25:00,
2013-10-28 17:30:00,18.9,13.1,25.42,North,0,3.5,3.5,78,0.00,CLR,,0.00,329.0,WeatherDisplay:10.37,2013-10-28 23:30:00,
2013-10-28 17:35:00,18.7,13.0,25.42,North,0,1.2,1.2,78,0.00,CLR,,0.00,340.0,WeatherDisplay:10.37,2013-10-28 23:35:00,
2013-10-28 17:40:00,18.7,13.2,25.41,North,0,3.1,3.1,79,0.00,CLR,,0.00,9692.2,WeatherDisplay:10.37,2013-10-28 23:40:00,
2013-10-28 17:45:00,18.5,13.1,25.41,North,0,5.8,5.8,79,0.00,CLR,,0.00,9692.2,WeatherDisplay:10.37,2013-10-28 23:45:00,
2013-10-28 17:50:00,18.5,13.1,25.41,North,0,3.5,3.5,79,0.00,CLR,,0.00,371.0,WeatherDisplay:10.37,2013-10-28 23:50:00,
2013-10-28 17:55:00,18.5,13.1,25.42,North,0,5.8,5.8,79,0.00,CLR,,0.00,381.0,WeatherDisplay:10.37,2013-10-28 23:55:00,
2013-10-28 18:00:00,18.1,12.7,25.41,East,90,3.5,3.5,79,0.00,CLR,,0.00,9692.2,WeatherDisplay:10.37,2013-10-29 00:00:00,
2013-10-28 18:05:00,18.3,12.9,25.41,SE,135,1.2,0.0,79,0.00,CLR,,0.00,401.0,WeatherDisplay:10.37,2013-10-29 00:05:00,
2013-10-28 18:10:00,18.3,12.9,25.41,North,0,8.1,8.1,79,0.00,CLR,,0.00,410.0,WeatherDisplay:10.37,2013-10-29 00:10:00,
2013-10-28 18:15:00,18.1,12.7,25.40,North,0,6.9,6.9,79,0.00,CLR,,0.00,419.0,WeatherDisplay:10.37,2013-10-29 00:15:00,
2013-10-28 18:20:00,18.1,12.7,25.41,North,0,5.8,5.8,79,0.00,CLR,,0.00,428.0,WeatherDisplay:10.37,2013-10-29 00:20:00,
2013-10-28 18:25:00,18.1,13.0,25.41,NW,315,1.2,0.0,80,0.00,CLR,,0.00,436.0,WeatherDisplay:10.37,2013-10-29 00:25:00,
2013-10-28 18:30:00,18.0,12.8,25.41,North,0,3.5,3.5,80,0.00,CLR,,0.00,444.0,WeatherDisplay:10.37,2013-10-29 00:30:00,
2013-10-28 18:35:00,18.0,12.8,25.41,NE,45,8.1,8.1,80,0.00,CLR,,0.00,452.0,WeatherDisplay:10.37,2013-10-29 00:35:00,
2013-10-28 18:40:00,18.0,12.8,25.41,NW,315,3.5,3.5,80,0.00,CLR,,0.00,460.0,WeatherDisplay:10.37,2013-10-29 00:40:00,
2013-10-28 18:45:00,18.0,12.8,25.41,NNE,22,5.8,5.8,80,0.00,CLR,,0.00,10106.0,WeatherDisplay:10.37,2013-10-29 00:45:00,
2013-10-28 18:50:00,18.0,13.1,25.40,North,0,3.5,3.5,81,0.00,CLR,,0.00,474.0,WeatherDisplay:10.37,2013-10-29 00:50:00,
2013-10-28 18:55:00,17.8,12.9,25.41,NW,315,3.5,3.5,81,0.00,CLR,,0.00,0.0,WeatherDisplay:10.37,2013-10-29 00:55:00,
2013-10-28 19:00:00,17.8,12.9,25.41,North,0,2.3,2.3,81,0.00,CLR,,0.00,0.0,WeatherDisplay:10.37,2013-10-29 01:00:00,
2013-10-28 19:05:00,17.8,12.9,25.40,NW,315,5.8,5.8,81,0.00,CLR,,0.00,0.0,WeatherDisplay:10.37,2013-10-29 01:05:00,
2013-10-28 19:10:00,17.8,12.9,25.40,WNW,292,4.5,4.5,81,0.00,CLR,,0.00,10261.1,WeatherDisplay:10.37,2013-10-29 01:10:00,
2013-10-28 19:15:00,17.8,13.2,25.41,NE,45,3.5,3.5,82,0.00,CLR,,0.00,0.0,WeatherDisplay:10.37,2013-10-29 01:15:00,
2013-10-28 19:20:00,17.8,13.2,25.41,NE,45,5.8,5.8,82,0.00,CLR,,0.00,0.0,WeatherDisplay:10.37,2013-10-29 01:20:00,
2013-10-28 19:25:00,17.8,13.2,25.41,NE,45,3.5,3.5,82,0.00,CLR,,0.00,0.0,WeatherDisplay:10.37,2013-10-29 01:25:00,
2013-10-28 19:30:00,17.6,13.0,25.41,West,270,3.5,0.0,82,0.00,CLR,,0.00,0.0,WeatherDisplay:10.37,2013-10-29 01:30:00,
2013-10-28 19:35:00,17.6,13.0,25.41,NW,315,4.6,4.6,82,0.00,CLR,,0.00,10261.1,WeatherDisplay:10.37,2013-10-29 01:35:00,
2013-10-28 19:40:00,17.6,13.0,25.41,North,0,1.2,0.0,82,0.00,CLR,,0.00,0.0,WeatherDisplay:10.37,2013-10-29 01:40:00,
2013-10-28 19:45:00,17.6,13.3,25.41,NE,45,3.5,0.0,83,0.00,CLR,,0.00,0.0,WeatherDisplay:10.37,2013-10-29 01:45:00,
2013-10-28 19:50:00,17.6,13.3,25.41,NW,315,1.2,1.2,83,0.00,CLR,,0.00,0.0,WeatherDisplay:10.37,2013-10-29 01:50:00,
2013-10-28 19:55:00,17.6,13.3,25.41,NNE,22,2.3,2.3,83,0.00,CLR,,0.00,0.0,WeatherDisplay:10.37,2013-10-29 01:55:00,
2013-10-28 20:00:00,17.6,13.3,25.41,NW,315,4.6,4.6,83,0.00,CLR,,0.00,10416.2,WeatherDisplay:10.37,2013-10-29 02:00:00,
2013-10-28 20:05:00,17.6,13.3,25.41,NW,315,3.5,3.5,83,0.00,CLR,,0.00,0.0,WeatherDisplay:10.37,2013-10-29 02:05:00,
2013-10-28 20:10:00,17.6,13.3,25.41,NE,45,3.5,0.0,83,0.00,CLR,,0.00,0.0,WeatherDisplay:10.37,2013-10-29 02:10:00,
2013-10-28 20:15:00,17.6,13.3,25.41,South,180,1.2,0.0,83,0.00,CLR,,0.00,0.0,WeatherDisplay:10.37,2013-10-29 02:15:00,
2013-10-28 20:20:00,17.6,13.3,25.41,North,0,2.3,2.3,83,0.00,CLR,,0.00,0.0,WeatherDisplay:10.37,2013-10-29 02:20:00,
2013-10-28 20:25:00,17.6,13.3,25.41,North,0,1.2,0.0,83,0.00,CLR,,0.00,0.0,WeatherDisplay:10.37,2013-10-29 02:25:00,
2013-10-28 20:30:00,17.6,13.3,25.41,NW,315,1.2,0.0,83,0.00,CLR,,0.00,0.0,WeatherDisplay:10.37,2013-10-29 02:30:00,
2013-10-28 20:35:00,17.6,13.3,25.42,NE,45,1.2,1.2,83,0.00,CLR,,0.00,0.0,WeatherDisplay:10.37,2013-10-29 02:35:00,
2013-10-28 20:40:00,17.8,13.5,25.41,North,0,2.3,2.3,83,0.00,CLR,,0.00,10674.9,WeatherDisplay:10.37,2013-10-29 02:40:00,
2013-10-28 20:45:00,17.8,13.8,25.41,North,0,3.5,3.5,84,0.00,CLR,,0.00,0.0,WeatherDisplay:10.37,2013-10-29 02:45:00,
2013-10-28 20:50:00,17.8,13.5,25.41,NW,315,3.5,3.5,83,0.00,CLR,,0.00,0.0,WeatherDisplay:10.37,2013-10-29 02:50:00,
2013-10-28 20:55:00,17.8,13.5,25.41,NNE,22,3.5,3.5,83,0.00,CLR,,0.00,0.0,WeatherDisplay:10.37,2013-10-29 02:55:00,
2013-10-28 21:00:00,17.8,13.5,25.41,NE,45,1.2,0.0,83,0.00,CLR,,0.00,0.0,WeatherDisplay:10.37,2013-10-29 03:00:00,
2013-10-28 21:05:00,17.8,13.5,25.41,NE,45,0.0,0.0,83,0.00,CLR,,0.00,10778.2,WeatherDisplay:10.37,2013-10-29 03:05:00,
2013-10-28 21:10:00,17.8,13.5,25.41,North,0,0.0,0.0,83,0.00,CLR,,0.00,0.0,WeatherDisplay:10.37,2013-10-29 03:10:00,
2013-10-28 21:15:00,17.8,13.5,25.41,North,0,5.8,5.8,83,0.00,CLR,,0.00,0.0,WeatherDisplay:10.37,2013-10-29 03:15:00,
2013-10-28 21:20:00,17.8,13.5,25.42,NW,315,1.2,0.0,83,0.00,CLR,,0.00,0.0,WeatherDisplay:10.37,2013-10-29 03:20:00,
2013-10-28 21:25:00,17.8,13.5,25.42,North,0,2.3,0.0,83,0.00,CLR,,0.00,0.0,WeatherDisplay:10.37,2013-10-29 03:25:00,
2013-10-28 21:30:00,17.8,13.5,25.42,North,0,1.2,0.0,83,0.00,CLR,,0.00,10778.2,WeatherDisplay:10.37,2013-10-29 03:30:00,
2013-10-28 21:35:00,17.8,13.5,25.42,West,270,2.3,2.3,83,0.00,CLR,,0.00,0.0,WeatherDisplay:10.37,2013-10-29 03:35:00,
2013-10-28 21:40:00,17.8,13.5,25.41,North,0,1.2,0.0,83,0.00,CLR,,0.00,0.0,WeatherDisplay:10.37,2013-10-29 03:40:00,
2013-10-28 21:45:00,17.8,13.5,25.42,North,0,3.1,3.1,83,0.00,CLR,,0.00,10933.5,WeatherDisplay:10.37,2013-10-29 03:45:00,
2013-10-28 21:50:00,17.8,13.5,25.41,NE,45,1.2,1.2,83,0.00,CLR,,0.00,0.0,WeatherDisplay:10.37,2013-10-29 03:50:00,
2013-10-28 21:55:00,17.8,13.8,25.42,NW,315,1.2,0.0,84,0.00,CLR,,0.00,10933.5,WeatherDisplay:10.37,2013-10-29 03:55:00,
2013-10-28 22:00:00,17.8,13.5,25.42,NW,315,3.5,3.5,83,0.00,CLR,,0.00,0.0,WeatherDisplay:10.37,2013-10-29 04:00:00,
2013-10-28 22:01:00,17.8,13.5,25.42,NW,315,2.3,2.3,83,0.00,CLR,,0.00,0.0,WeatherDisplay:10.37,2013-10-29 04:01:00,
2013-10-28 22:02:00,17.8,13.5,25.42,NW,315,1.2,1.2,83,0.00,CLR,,0.00,0.0,WeatherDisplay:10.37,2013-10-29 04:02:00,
2013-10-28 22:04:00,17.8,13.5,25.42,NW,315,1.2,1.2,83,0.00,CLR,,0.00,0.0,WeatherDisplay:10.37,2013-10-29 04:04:00,
2013-10-28 22:09:00,17.8,13.8,25.42,SW,225,1.2,0.0,84,0.00,CLR,,0.00,0.0,WeatherDisplay:10.37,2013-10-29 04:09:00,
2013-10-28 22:14:00,18.0,13.9,25.42,West,270,0.0,0.0,84,0.00,CLR,,0.00,11088.8,WeatherDisplay:10.37,2013-10-29 04:14:00,
2013-10-28 22:19:00,18.0,13.9,25.42,West,270,1.2,0.0,84,0.00,CLR,,0.00,0.0,WeatherDisplay:10.37,2013-10-29 04:19:00,
2013-10-28 22:24:00,18.0,13.9,25.42,North,0,3.5,3.5,84,0.00,CLR,,0.00,0.0,WeatherDisplay:10.37,2013-10-29 04:24:00,
2013-10-28 22:29:00,18.0,13.7,25.42,NW,315,1.2,0.0,83,0.00,CLR,,0.00,0.0,WeatherDisplay:10.37,2013-10-29 04:29:00,
2013-10-28 22:34:00,18.0,13.7,25.42,North,0,1.2,0.0,83,0.00,CLR,,0.00,0.0,WeatherDisplay:10.37,2013-10-29 04:34:00,
2013-10-28 22:39:00,18.0,13.7,25.42,North,0,1.2,1.2,83,0.00,CLR,,0.00,11192.2,WeatherDisplay:10.37,2013-10-29 04:39:00,
2013-10-28 22:44:00,18.0,13.7,25.42,NW,315,1.2,0.0,83,0.00,CLR,,0.00,0.0,WeatherDisplay:10.37,2013-10-29 04:44:00,
2013-10-28 22:49:00,18.0,13.7,25.42,NW,315,0.0,0.0,83,0.00,CLR,,0.00,0.0,WeatherDisplay:10.37,2013-10-29 04:49:00,
2013-10-28 22:54:00,18.0,13.7,25.42,NW,315,2.3,2.3,83,0.00,CLR,,0.00,0.0,WeatherDisplay:10.37,2013-10-29 04:54:00,
2013-10-28 22:59:00,18.0,13.9,25.41,North,0,2.3,2.3,84,0.00,CLR,,0.00,0.0,WeatherDisplay:10.37,2013-10-29 04:59:00,
2013-10-28 23:04:00,18.0,13.9,25.41,NW,315,3.5,3.5,84,0.00,CLR,,0.00,11192.2,WeatherDisplay:10.37,2013-10-29 05:04:00,
2013-10-28 23:09:00,18.0,13.9,25.41,North,0,2.3,2.3,84,0.00,CLR,,0.00,0.0,WeatherDisplay:10.37,2013-10-29 05:09:00,
2013-10-28 23:14:00,17.8,13.8,25.41,North,0,2.3,2.3,84,0.00,CLR,,0.00,0.0,WeatherDisplay:10.37,2013-10-29 05:14:00,
2013-10-28 23:19:00,17.8,13.8,25.41,NW,315,3.5,0.0,84,0.00,CLR,,0.00,11347.5,WeatherDisplay:10.37,2013-10-29 05:19:00,
2013-10-28 23:24:00,17.8,13.8,25.40,NW,315,3.5,3.5,84,0.00,CLR,,0.00,0.0,WeatherDisplay:10.37,2013-10-29 05:24:00,
2013-10-28 23:29:00,17.8,13.8,25.40,North,0,3.5,3.5,84,0.00,CLR,,0.00,11347.5,WeatherDisplay:10.37,2013-10-29 05:29:00,
2013-10-28 23:34:00,17.8,13.8,25.40,North,0,3.5,3.5,84,0.00,CLR,,0.00,0.0,WeatherDisplay:10.37,2013-10-29 05:34:00,
2013-10-28 23:39:00,17.8,13.8,25.40,West,270,1.2,1.2,84,0.00,CLR,,0.00,0.0,WeatherDisplay:10.37,2013-10-29 05:39:00,
2013-10-28 23:44:00,17.8,13.8,25.40,NW,315,2.3,2.3,84,0.00,CLR,,0.00,11450.9,WeatherDisplay:10.37,2013-10-29 05:44:00,
2013-10-28 23:49:00,17.8,13.8,25.39,North,0,3.5,3.5,84,0.00,CLR,,0.00,0.0,WeatherDisplay:10.37,2013-10-29 05:49:00,
2013-10-28 23:54:00,17.8,13.8,25.39,NW,315,2.3,2.3,84,0.00,CLR,,0.00,11450.9,WeatherDisplay:10.37,2013-10-29 05:54:00,
2013-10-28 23:59:00,17.8,13.8,25.40,NW,315,1.2,0.0,84,0.00,CLR,,0.00,0.0,WeatherDisplay:10.37,2013-10-29 05:59:00,